createdAt,value
2023-01-11T00:00:39.164Z,1.10
2023-01-11T00:03:06.966Z,1.13
2023-01-11T00:05:41.497Z,1.17
2023-01-11T00:08:09.333Z,1.17
2023-01-11T00:10:36.961Z,0.88
2023-01-11T00:13:04.518Z,1.17
2023-01-11T00:15:32.419Z,1.30
2023-01-11T00:17:59.553Z,1.15
2023-01-11T00:20:26.586Z,1.23
2023-01-11T00:22:53.577Z,1.10
2023-01-11T00:25:20.540Z,1.40
2023-01-11T00:27:49.558Z,1.33
2023-01-11T00:30:17.875Z,1.13
2023-01-11T00:32:45.367Z,1.08
2023-01-11T00:35:13.143Z,1.00
2023-01-11T00:37:40.714Z,0.98
2023-01-11T00:40:08.889Z,1.80
2023-01-11T00:42:54.525Z,1.55
2023-01-11T00:45:40.113Z,1.35
2023-01-11T00:48:07.675Z,1.52
2023-01-11T00:50:37.753Z,1.55
2023-01-11T00:53:05.812Z,1.42
2023-01-11T00:55:32.916Z,1.60
2023-01-11T00:58:00.925Z,1.13
2023-01-11T01:00:28.999Z,1.77
2023-01-11T01:02:56.247Z,1.25
2023-01-11T01:05:23.574Z,1.15
2023-01-11T01:07:50.666Z,1.35
2023-01-11T01:10:18.427Z,1.40
2023-01-11T01:13:05.225Z,1.53
2023-01-11T01:15:33.245Z,1.50
2023-01-11T01:18:00.454Z,1.60
2023-01-11T01:20:27.523Z,1.58
2023-01-11T01:22:54.507Z,1.40
2023-01-11T01:25:21.483Z,1.92
2023-01-11T01:27:48.817Z,1.88
2023-01-11T01:30:15.952Z,1.48
2023-01-11T01:32:43.101Z,1.58
2023-01-11T01:35:10.197Z,1.65
2023-01-11T01:37:37.307Z,1.90
2023-01-11T01:40:05.078Z,2.15
2023-01-11T01:42:32.074Z,1.67
2023-01-11T01:45:03.343Z,1.80
2023-01-11T01:47:42.469Z,1.98
2023-01-11T01:50:50.490Z,1.85
2023-01-11T01:53:22.865Z,2.15
2023-01-11T01:55:54.908Z,2.05
2023-01-11T01:58:28.855Z,1.77
2023-01-11T02:00:55.810Z,1.95
2023-01-11T02:03:25.713Z,1.60
2023-01-11T02:05:53.671Z,1.90
2023-01-11T02:08:35.578Z,1.92
2023-01-11T02:11:04.080Z,2.00
2023-01-11T02:13:31.913Z,1.58
2023-01-11T02:16:08.328Z,1.52
2023-01-11T02:18:37.564Z,1.90
2023-01-11T02:21:07.519Z,1.60
2023-01-11T02:24:09.533Z,1.90
2023-01-11T02:26:56.100Z,1.73
2023-01-11T02:29:42.335Z,2.08
2023-01-11T02:32:18.605Z,2.33
2023-01-11T02:35:12.979Z,1.98
2023-01-11T02:38:06.545Z,2.20
2023-01-11T02:40:52.898Z,2.42
2023-01-11T02:43:53.444Z,2.30
2023-01-11T02:46:35.315Z,2.65
2023-01-11T02:49:17.473Z,2.15
2023-01-11T02:51:54.555Z,2.63
2023-01-11T02:54:24.175Z,2.55
2023-01-11T02:56:57.137Z,2.53
2023-01-11T02:59:31.984Z,3.05
2023-01-11T03:01:59.798Z,3.25
2023-01-11T03:04:35.758Z,2.45
2023-01-11T03:07:24.310Z,2.15
2023-01-11T03:09:51.212Z,2.75
2023-01-11T03:12:57.270Z,2.50
2023-01-11T03:15:39.364Z,2.17
2023-01-11T03:18:16.822Z,2.95
2023-01-11T03:21:06.240Z,2.75
2023-01-11T03:23:57.843Z,2.47
2023-01-11T03:26:30.808Z,2.65
2023-01-11T03:29:12.893Z,2.53
2023-01-11T03:31:52.346Z,2.80
2023-01-11T03:34:46.712Z,2.08
2023-01-11T03:37:38.596Z,3.00
2023-01-11T03:40:28.936Z,3.90
2023-01-11T03:43:27.358Z,3.25
2023-01-11T03:46:02.849Z,2.60
2023-01-11T03:48:34.996Z,2.40
2023-01-11T03:51:05.614Z,2.75
2023-01-11T03:53:36.978Z,2.97
2023-01-11T03:56:09.855Z,2.80
2023-01-11T03:58:37.174Z,2.78
2023-01-11T04:01:04.713Z,2.63
2023-01-11T04:03:31.747Z,3.40
2023-01-11T04:06:02.802Z,2.60
2023-01-11T04:08:31.278Z,2.53
2023-01-11T04:10:58.351Z,2.65
2023-01-11T04:13:25.299Z,3.20
2023-01-11T04:15:54.316Z,2.70
2023-01-11T04:18:21.393Z,2.47
2023-01-11T04:20:48.417Z,3.13
2023-01-11T04:23:15.436Z,3.25
2023-01-11T04:25:42.512Z,3.05
2023-01-11T04:28:09.525Z,3.20
2023-01-11T04:30:37.269Z,3.40
2023-01-11T04:33:04.340Z,2.60
2023-01-11T04:35:31.360Z,3.45
2023-01-11T04:37:58.717Z,2.45
2023-01-11T04:40:26.230Z,3.15
2023-01-11T04:42:53.263Z,2.80
2023-01-11T04:45:20.358Z,2.70
2023-01-11T04:47:53.263Z,2.38
2023-01-11T04:50:20.393Z,2.67
2023-01-11T04:52:47.371Z,3.17
2023-01-11T04:55:14.381Z,2.15
2023-01-11T04:57:41.389Z,2.58
2023-01-11T05:00:10.981Z,3.17
2023-01-11T05:02:41.508Z,2.90
2023-01-11T05:05:10.163Z,2.90
2023-01-11T05:10:06.736Z,2.53
2023-01-11T05:12:33.859Z,2.50
2023-01-11T05:15:00.803Z,2.40
2023-01-11T05:17:27.813Z,2.67
2023-01-11T05:19:54.817Z,2.30
2023-01-11T05:22:21.876Z,2.78
2023-01-11T05:24:48.956Z,2.40
2023-01-11T05:27:15.917Z,2.25
2023-01-11T05:29:44.187Z,2.72
2023-01-11T05:32:12.298Z,2.75
2023-01-11T05:34:39.348Z,3.45
2023-01-11T05:37:06.498Z,2.58
2023-01-11T05:39:33.714Z,2.38
2023-01-11T05:42:00.674Z,2.85
2023-01-11T05:44:46.051Z,2.45
2023-01-11T05:47:12.991Z,2.42
2023-01-11T05:49:40.388Z,3.05
2023-01-11T05:52:07.326Z,2.60
2023-01-11T05:54:34.341Z,2.53
2023-01-11T05:57:01.302Z,2.83
2023-01-11T05:59:29.842Z,3.28
2023-01-11T06:01:59.119Z,2.80
2023-01-11T06:04:27.530Z,3.67
2023-01-11T06:06:54.633Z,2.78
2023-01-11T06:09:21.612Z,2.80
2023-01-11T06:11:50.549Z,3.00
2023-01-11T06:14:17.618Z,3.10
2023-01-11T06:16:44.627Z,2.88
2023-01-11T06:19:11.743Z,2.97
2023-01-11T06:21:38.973Z,2.85
2023-01-11T06:24:06.213Z,3.05
2023-01-11T06:26:33.296Z,2.72
2023-01-11T06:29:00.310Z,3.88
2023-01-11T06:31:27.333Z,3.55
2023-01-11T06:33:54.322Z,3.25
2023-01-11T06:36:21.323Z,2.17
2023-01-11T06:38:48.257Z,2.72
2023-01-11T06:41:15.957Z,2.70
2023-01-11T06:43:43.072Z,3.03
2023-01-11T06:46:15.691Z,2.88
2023-01-11T06:48:43.735Z,2.50
2023-01-11T06:51:12.090Z,3.05
2023-01-11T06:53:40.807Z,2.80
2023-01-11T06:58:35.292Z,3.10
2023-01-11T07:01:02.523Z,3.42
2023-01-11T07:03:30.019Z,2.90
2023-01-11T07:05:57.561Z,2.70
2023-01-11T07:08:25.870Z,2.80
2023-01-11T07:10:53.060Z,3.08
2023-01-11T07:13:20.236Z,2.33
2023-01-11T07:15:50.081Z,3.42
2023-01-11T07:18:19.061Z,2.60
2023-01-11T07:20:46.245Z,3.45
2023-01-11T07:23:13.324Z,2.63
2023-01-11T07:25:41.244Z,3.13
2023-01-11T07:28:08.977Z,2.47
2023-01-11T07:30:55.431Z,3.28
2023-01-11T07:33:24.792Z,3.25
2023-01-11T07:35:51.770Z,2.67
2023-01-11T07:38:18.825Z,2.50
2023-01-11T07:40:45.840Z,3.85
2023-01-11T07:43:18.420Z,2.80
2023-01-11T07:45:50.842Z,3.42
2023-01-11T07:48:26.082Z,3.13
2023-01-11T07:50:53.494Z,2.67
2023-01-11T07:53:20.730Z,2.75
2023-01-11T07:55:47.844Z,2.92
2023-01-11T07:58:15.562Z,2.70
2023-01-11T08:00:43.153Z,3.27
2023-01-11T08:03:10.413Z,2.95
2023-01-11T08:05:37.837Z,2.95
2023-01-11T08:08:05.616Z,2.63
2023-01-11T08:10:33.058Z,3.58
2023-01-11T08:13:18.693Z,3.80
2023-01-11T08:15:45.998Z,3.28
2023-01-11T08:18:13.293Z,3.40
2023-01-11T08:20:40.954Z,3.50
2023-01-11T08:23:09.803Z,3.58
2023-01-11T08:25:37.797Z,3.10
2023-01-11T08:28:06.637Z,4.13
2023-01-11T08:30:34.014Z,3.08
2023-01-11T08:33:02.011Z,2.72
2023-01-11T08:35:29.955Z,2.85
2023-01-11T08:37:56.952Z,2.88
2023-01-11T08:40:25.635Z,2.97
2023-01-11T08:42:56.858Z,2.38
2023-01-11T08:45:24.389Z,3.50
2023-01-11T08:47:52.211Z,3.40
2023-01-11T08:50:20.256Z,3.10
2023-01-11T08:52:49.587Z,4.10
2023-01-11T08:55:16.824Z,4.03
2023-01-11T08:57:43.769Z,3.38
2023-01-11T09:00:11.490Z,4.03
2023-01-11T09:02:38.511Z,4.82
2023-01-11T09:05:05.971Z,4.47
2023-01-11T09:07:32.913Z,3.95
2023-01-11T09:09:59.864Z,3.65
2023-01-11T09:12:27.718Z,3.88
2023-01-11T09:14:54.768Z,3.95
2023-01-11T09:17:21.772Z,4.10
2023-01-11T09:19:48.864Z,3.92
2023-01-11T09:22:16.228Z,4.05
2023-01-11T09:24:43.401Z,4.40
2023-01-11T09:27:11.899Z,4.47
2023-01-11T09:32:06.346Z,4.60
2023-01-11T09:34:33.399Z,4.40
2023-01-11T09:37:02.752Z,3.97
2023-01-11T09:39:29.906Z,4.68
2023-01-11T09:42:20.751Z,3.70
2023-01-11T09:44:59.728Z,3.78
2023-01-11T09:47:41.308Z,4.28
2023-01-11T09:50:26.609Z,3.25
2023-01-11T09:53:08.249Z,4.18
2023-01-11T09:55:39.985Z,3.15
2023-01-11T09:58:38.565Z,4.07
2023-01-11T10:01:12.458Z,4.50
2023-01-11T10:04:22.437Z,3.70
2023-01-11T10:07:12.507Z,4.32
2023-01-11T10:18:39.239Z,4.03
2023-01-11T10:19:36.475Z,3.45
2023-01-11T10:22:17.021Z,3.95
2023-01-11T10:25:07.553Z,4.32
2023-01-11T10:27:56.811Z,3.88
2023-01-11T10:31:08.040Z,4.80
2023-01-11T10:34:03.796Z,4.10
2023-01-11T10:37:17.092Z,4.18
2023-01-11T10:40:08.015Z,3.88
2023-01-11T10:42:46.860Z,4.07
2023-01-11T10:45:17.019Z,4.13
2023-01-11T10:47:55.180Z,4.60
2023-01-11T10:51:01.727Z,4.45
2023-01-11T10:53:50.077Z,4.47
2023-01-11T10:56:33.606Z,3.83
2023-01-11T10:59:39.574Z,4.47
2023-01-11T11:02:16.698Z,4.60
2023-01-11T11:04:55.648Z,4.88
2023-01-11T11:07:35.781Z,4.05
2023-01-11T11:10:21.905Z,3.70
2023-01-11T11:13:01.121Z,3.38
2023-01-11T11:15:37.140Z,3.85
2023-01-11T11:18:04.723Z,3.80
2023-01-11T11:20:34.203Z,4.35
2023-01-11T11:23:01.714Z,4.05
2023-01-11T11:25:41.443Z,2.92
2023-01-11T11:28:27.087Z,4.05
2023-01-11T11:30:56.877Z,3.30
2023-01-11T11:33:25.347Z,3.50
2023-01-11T11:36:10.080Z,3.42
2023-01-11T11:38:42.520Z,3.35
2023-01-11T11:41:13.254Z,3.05
2023-01-11T11:43:45.706Z,3.03
2023-01-11T11:46:19.244Z,3.47
2023-01-11T11:49:31.994Z,3.42
2023-01-11T11:52:01.177Z,3.97
2023-01-11T11:54:43.249Z,5.00
2023-01-11T11:57:28.034Z,3.47
2023-01-11T12:00:05.725Z,3.75
2023-01-11T12:02:35.379Z,4.57
2023-01-11T12:05:09.127Z,4.88
2023-01-11T12:07:53.873Z,3.53
2023-01-11T12:10:28.013Z,3.83
2023-01-11T12:12:56.193Z,3.60
2023-01-11T12:15:33.921Z,3.33
2023-01-11T12:18:30.560Z,2.97
2023-01-11T12:21:08.312Z,2.88
2023-01-11T12:23:35.271Z,3.38
2023-01-11T12:26:08.031Z,3.28
2023-01-11T12:28:46.899Z,2.90
2023-01-11T12:31:36.931Z,3.53
2023-01-11T12:34:17.840Z,2.70
2023-01-11T12:36:47.552Z,3.17
2023-01-11T12:39:33.146Z,2.65
2023-01-11T12:42:39.163Z,2.85
2023-01-11T12:45:38.685Z,2.65
2023-01-11T12:48:34.048Z,2.35
2023-01-11T12:51:19.165Z,2.22
2023-01-11T12:53:59.923Z,2.17
2023-01-11T12:56:43.206Z,2.80
2023-01-11T12:59:38.046Z,2.70
2023-01-11T13:02:21.072Z,2.10
2023-01-11T13:05:01.141Z,2.45
2023-01-11T13:07:38.997Z,2.72
2023-01-11T13:10:34.895Z,2.67
2023-01-11T13:13:13.762Z,2.72
2023-01-11T13:15:53.811Z,2.08
2023-01-11T13:18:20.758Z,2.25
2023-01-11T13:21:01.244Z,2.88
2023-01-11T13:23:50.172Z,1.73
2023-01-11T13:26:35.766Z,2.10
2023-01-11T13:29:05.077Z,1.88
2023-01-11T13:31:34.892Z,1.80
2023-01-11T13:34:12.618Z,2.38
2023-01-11T13:36:45.755Z,2.35
2023-01-11T13:39:35.095Z,2.92
2023-01-11T13:42:15.867Z,2.20
2023-01-11T13:44:49.733Z,2.58
2023-01-11T13:48:05.135Z,2.50
2023-01-11T13:50:47.407Z,2.42
2023-01-11T13:53:28.476Z,3.13
2023-01-11T13:56:18.517Z,2.85
2023-01-11T13:59:07.695Z,1.95
2023-01-11T14:01:49.643Z,2.22
2023-01-11T14:04:22.377Z,2.45
2023-01-11T14:07:31.089Z,1.98
2023-01-11T14:10:04.124Z,2.13
2023-01-11T14:12:51.719Z,2.38
2023-01-11T14:15:26.570Z,1.63
2023-01-11T14:18:09.369Z,1.92
2023-01-11T14:20:48.976Z,1.70
2023-01-11T14:23:21.732Z,1.80
2023-01-11T14:25:51.439Z,1.75
2023-01-11T14:28:24.298Z,2.05
2023-01-11T14:30:55.230Z,1.40
2023-01-11T14:33:40.057Z,1.08
2023-01-11T14:36:45.310Z,1.10
2023-01-11T14:39:29.180Z,0.98
2023-01-11T14:42:39.406Z,1.33
2023-01-11T14:45:26.792Z,1.67
2023-01-11T14:48:05.524Z,1.30
2023-01-11T14:51:05.718Z,1.20
2023-01-11T14:53:39.690Z,1.00
2023-01-11T14:56:35.616Z,0.82
2023-01-11T14:59:05.636Z,1.17
2023-01-11T15:02:04.888Z,1.27
2023-01-11T15:04:33.269Z,1.05
2023-01-11T15:07:00.543Z,1.20
2023-01-11T15:09:48.894Z,1.00
2023-01-11T15:12:19.798Z,1.45
2023-01-11T15:15:02.442Z,0.90
2023-01-11T15:17:49.544Z,1.30
2023-01-11T15:20:24.260Z,1.20
2023-01-11T15:23:01.618Z,1.38
2023-01-11T15:25:33.928Z,1.30
2023-01-11T15:28:39.097Z,1.23
2023-01-11T15:31:06.757Z,1.20
2023-01-11T15:33:46.881Z,1.10
2023-01-11T15:36:14.315Z,1.25
2023-01-11T15:38:56.493Z,1.10
2023-01-11T15:42:05.354Z,1.00
2023-01-11T15:44:47.070Z,1.10
2023-01-11T15:47:51.611Z,1.55
2023-01-11T15:50:42.926Z,1.30
2023-01-11T15:53:21.960Z,1.02
2023-01-11T15:56:07.805Z,0.93
2023-01-11T15:58:53.360Z,1.15
2023-01-11T16:01:26.300Z,1.50
2023-01-11T16:04:36.121Z,1.60
2023-01-11T16:07:18.108Z,1.08
2023-01-11T16:10:03.821Z,1.65
2023-01-11T16:13:19.777Z,1.55
2023-01-11T16:15:52.647Z,1.83
2023-01-11T16:18:24.561Z,1.95
2023-01-11T16:21:04.760Z,1.80
2023-01-11T16:23:33.573Z,1.77
2023-01-11T16:26:01.647Z,1.48
2023-01-11T16:28:29.129Z,1.80
2023-01-11T16:30:57.932Z,1.80
2023-01-11T16:33:27.536Z,1.35
2023-01-11T16:36:04.600Z,1.02
2023-01-11T16:38:36.853Z,1.60
2023-01-11T16:41:06.764Z,1.40
2023-01-11T16:43:35.912Z,1.30
2023-01-11T16:46:03.487Z,1.42
2023-01-11T16:48:30.511Z,1.42
2023-01-11T16:51:14.332Z,1.65
2023-01-11T16:53:43.659Z,1.52
2023-01-11T16:56:22.202Z,2.22
2023-01-11T17:02:23.462Z,1.58
2023-01-11T17:04:54.265Z,1.85
2023-01-11T17:07:28.008Z,1.65
2023-01-11T17:10:22.743Z,1.50
2023-01-11T17:13:46.212Z,1.40
2023-01-11T17:16:17.060Z,2.00
2023-01-11T17:18:44.489Z,1.55
2023-01-11T17:21:27.171Z,1.88
2023-01-11T17:24:03.428Z,1.55
2023-01-11T17:26:46.361Z,1.83
2023-01-11T17:29:23.665Z,1.75
2023-01-11T17:31:50.771Z,2.05
2023-01-11T17:34:44.304Z,2.33
2023-01-11T17:37:15.992Z,2.72
2023-01-11T17:39:50.120Z,2.95
2023-01-11T17:42:36.550Z,2.67
2023-01-11T17:45:23.912Z,2.38
2023-01-11T17:47:53.161Z,2.28
2023-01-11T17:50:32.762Z,2.70
2023-01-11T17:53:27.343Z,3.00
2023-01-11T17:56:01.226Z,2.35
2023-01-11T17:58:34.892Z,3.20
2023-01-11T18:01:05.199Z,3.22
2023-01-11T18:03:44.529Z,3.13
2023-01-11T18:06:40.544Z,3.70
2023-01-11T18:09:29.095Z,3.75
2023-01-11T18:12:20.858Z,3.38
2023-01-11T18:14:56.570Z,3.00
2023-01-11T18:17:32.609Z,4.03
2023-01-11T18:20:01.153Z,3.30
2023-01-11T18:22:42.792Z,3.35
2023-01-11T18:25:19.785Z,3.95
2023-01-11T18:27:47.296Z,4.63
2023-01-11T18:30:32.617Z,3.70
2023-01-11T18:33:02.182Z,3.42
2023-01-11T18:35:30.065Z,4.20
2023-01-11T18:37:57.143Z,3.90
2023-01-11T18:40:24.143Z,3.72
2023-01-11T18:42:53.265Z,3.97
2023-01-11T18:45:21.931Z,3.70
2023-01-11T18:50:18.710Z,5.20
2023-01-11T18:52:46.656Z,4.18
2023-01-11T18:55:14.556Z,4.28
2023-01-11T18:57:42.475Z,4.13
2023-01-11T19:00:14.060Z,3.80
2023-01-11T19:02:43.234Z,4.32
2023-01-11T19:05:14.627Z,3.55
2023-01-11T19:07:42.193Z,3.97
2023-01-11T19:10:10.906Z,3.90
2023-01-11T19:12:37.935Z,4.45
2023-01-11T19:15:05.311Z,5.07
2023-01-11T19:17:32.623Z,5.85
2023-01-11T19:20:00.272Z,5.68
2023-01-11T19:22:27.251Z,6.63
2023-01-11T19:24:55.197Z,5.50
2023-01-11T19:27:23.054Z,5.60
2023-01-11T19:29:50.117Z,5.38
2023-01-11T19:32:18.502Z,6.32
2023-01-11T19:34:45.611Z,5.60
2023-01-11T19:37:12.609Z,5.63
2023-01-11T19:39:40.216Z,5.05
2023-01-11T19:42:07.232Z,4.95
2023-01-11T19:44:37.034Z,5.00
2023-01-11T19:47:11.696Z,4.72
2023-01-11T19:49:40.472Z,4.88
2023-01-11T19:52:14.457Z,5.35
2023-01-11T19:54:46.132Z,4.72
2023-01-11T19:57:17.821Z,4.20
2023-01-11T19:59:44.938Z,4.50
2023-01-11T20:02:12.921Z,5.22
2023-01-11T20:04:40.783Z,4.85
2023-01-11T20:07:08.821Z,3.95
2023-01-11T20:09:38.780Z,3.30
2023-01-11T20:12:07.477Z,4.45
2023-01-11T20:14:34.810Z,4.05
2023-01-11T20:17:01.941Z,4.50
2023-01-11T20:19:29.073Z,3.90
2023-01-11T20:21:56.568Z,3.83
2023-01-11T20:24:30.182Z,4.25
2023-01-11T20:27:00.384Z,3.80
2023-01-11T20:29:27.469Z,3.72
2023-01-11T20:31:54.459Z,3.65
2023-01-11T20:34:21.611Z,4.57
2023-01-11T20:36:49.091Z,4.32
2023-01-11T20:39:17.505Z,3.75
2023-01-11T20:41:47.725Z,3.05
2023-01-11T20:44:18.139Z,4.20
2023-01-11T20:46:47.806Z,3.78
2023-01-11T20:49:18.497Z,2.80
2023-01-11T20:51:46.747Z,2.67
2023-01-11T20:54:14.224Z,2.30
2023-01-11T20:56:41.856Z,3.10
2023-01-11T20:59:09.615Z,2.40
2023-01-11T21:01:37.406Z,2.13
2023-01-11T21:04:07.352Z,2.72
2023-01-11T21:06:37.784Z,2.63
2023-01-11T21:09:07.028Z,2.65
2023-01-11T21:11:34.195Z,3.15
2023-01-11T21:14:04.251Z,3.28
2023-01-11T21:16:32.303Z,3.25
2023-01-11T21:19:04.312Z,2.97
2023-01-11T21:21:34.255Z,2.75
2023-01-11T21:24:03.640Z,2.13
2023-01-11T21:26:31.858Z,2.40
2023-01-11T21:29:01.150Z,1.98
2023-01-11T21:31:31.080Z,2.45
2023-01-11T21:33:59.354Z,1.50
2023-01-11T21:36:27.701Z,1.52
2023-01-11T21:38:56.849Z,1.45
2023-01-11T21:41:45.142Z,1.20
2023-01-11T21:44:13.456Z,1.20
2023-01-11T21:46:40.926Z,1.15
2023-01-11T21:49:08.671Z,1.50
2023-01-11T21:51:36.192Z,1.50
2023-01-11T21:54:08.534Z,1.63
2023-01-11T21:56:36.207Z,1.20
2023-01-11T21:59:04.100Z,1.60
2023-01-11T22:01:31.213Z,1.83
2023-01-11T22:03:58.347Z,1.85
2023-01-11T22:06:25.391Z,1.40
2023-01-11T22:08:52.716Z,1.23
2023-01-11T22:11:20.465Z,1.60
2023-01-11T22:13:47.454Z,1.80
2023-01-11T22:16:16.805Z,1.50
2023-01-11T22:18:45.041Z,1.50
2023-01-11T22:21:14.829Z,1.55
2023-01-11T22:23:42.192Z,1.50
2023-01-11T22:26:15.757Z,1.30
2023-01-11T22:29:02.241Z,1.30
2023-01-11T22:31:30.485Z,1.00
2023-01-11T22:33:58.471Z,1.48
2023-01-11T22:36:26.409Z,1.23
2023-01-11T22:38:54.173Z,0.90
2023-01-11T22:41:21.942Z,1.10
2023-01-11T22:43:49.686Z,1.20
2023-01-11T22:46:21.844Z,3.23
2023-01-11T22:48:49.094Z,3.33
2023-01-11T22:51:17.810Z,3.35
2023-01-11T22:53:46.722Z,4.85
2023-01-11T22:56:15.430Z,3.30
2023-01-11T23:01:16.837Z,1.90
2023-01-11T23:03:45.326Z,1.40
2023-01-11T23:06:13.184Z,1.48
2023-01-11T23:08:42.819Z,1.30
2023-01-11T23:11:35.948Z,1.75
2023-01-11T23:14:10.050Z,1.30
2023-01-11T23:16:38.049Z,1.00
2023-01-11T23:19:06.771Z,1.30
2023-01-11T23:21:34.442Z,1.35
2023-01-11T23:24:02.522Z,1.10
2023-01-11T23:26:29.992Z,0.88
2023-01-11T23:28:56.934Z,1.00
2023-01-11T23:31:25.776Z,1.20
2023-01-11T23:33:55.126Z,0.80
2023-01-11T23:36:23.889Z,1.00
2023-01-11T23:38:51.423Z,0.90
2023-01-11T23:41:38.937Z,0.70
2023-01-11T23:44:11.611Z,1.20
2023-01-11T23:46:58.613Z,0.70
2023-01-11T23:49:26.914Z,0.60
2023-01-11T23:51:55.076Z,0.75
2023-01-11T23:54:23.096Z,0.88
2023-01-11T23:56:50.083Z,0.95
2023-01-11T23:59:17.083Z,1.00
